sensor_id;sensor_type;location;lat;lon;timestamp;P1;durP1;ratioP1;P2;durP2;ratioP2
19111;SDS011;9688;51.906;8.376;2023-08-12T00:01:26;5.55;;;4.72;;
19111;SDS011;9688;51.906;8.376;2023-08-12T00:04:12;6.20;;;4.93;;
19111;SDS011;9688;51.906;8.376;2023-08-12T00:06:59;5.47;;;4.32;;
19111;SDS011;9688;51.906;8.376;2023-08-12T00:09:45;10.88;;;4.63;;
19111;SDS011;9688;51.906;8.376;2023-08-12T00:12:32;8.48;;;4.60;;
19111;SDS011;9688;51.906;8.376;2023-08-12T00:15:20;10.13;;;4.87;;
19111;SDS011;9688;51.906;8.376;2023-08-12T00:18:05;7.38;;;4.38;;
19111;SDS011;9688;51.906;8.376;2023-08-12T00:20:52;12.13;;;5.13;;
19111;SDS011;9688;51.906;8.376;2023-08-12T00:23:39;11.10;;;5.00;;
19111;SDS011;9688;51.906;8.376;2023-08-12T00:26:26;9.83;;;5.33;;
19111;SDS011;9688;51.906;8.376;2023-08-12T00:29:13;9.57;;;6.22;;
19111;SDS011;9688;51.906;8.376;2023-08-12T00:31:59;8.87;;;5.83;;
19111;SDS011;9688;51.906;8.376;2023-08-12T00:34:45;7.60;;;6.07;;
19111;SDS011;9688;51.906;8.376;2023-08-12T00:37:31;12.00;;;6.10;;
19111;SDS011;9688;51.906;8.376;2023-08-12T00:40:18;13.20;;;6.67;;
19111;SDS011;9688;51.906;8.376;2023-08-12T00:43:03;7.80;;;5.83;;
19111;SDS011;9688;51.906;8.376;2023-08-12T00:45:50;7.73;;;5.80;;
19111;SDS011;9688;51.906;8.376;2023-08-12T00:48:36;12.25;;;6.60;;
19111;SDS011;9688;51.906;8.376;2023-08-12T00:51:21;13.63;;;6.57;;
19111;SDS011;9688;51.906;8.376;2023-08-12T00:54:08;17.63;;;6.73;;
19111;SDS011;9688;51.906;8.376;2023-08-12T00:56:59;10.97;;;7.03;;
19111;SDS011;9688;51.906;8.376;2023-08-12T00:59:44;12.33;;;6.17;;
19111;SDS011;9688;51.906;8.376;2023-08-12T01:02:32;15.07;;;7.50;;
19111;SDS011;9688;51.906;8.376;2023-08-12T01:05:18;9.00;;;7.03;;
19111;SDS011;9688;51.906;8.376;2023-08-12T01:08:03;15.20;;;6.77;;
19111;SDS011;9688;51.906;8.376;2023-08-12T01:10:50;11.60;;;6.67;;
19111;SDS011;9688;51.906;8.376;2023-08-12T01:13:43;11.10;;;7.20;;
19111;SDS011;9688;51.906;8.376;2023-08-12T01:16:32;10.73;;;6.93;;
19111;SDS011;9688;51.906;8.376;2023-08-12T01:19:26;10.00;;;6.80;;
19111;SDS011;9688;51.906;8.376;2023-08-12T01:22:16;13.10;;;7.53;;
19111;SDS011;9688;51.906;8.376;2023-08-12T01:25:07;14.90;;;7.83;;
19111;SDS011;9688;51.906;8.376;2023-08-12T01:27:53;17.83;;;8.23;;
19111;SDS011;9688;51.906;8.376;2023-08-12T01:30:42;12.43;;;7.73;;
19111;SDS011;9688;51.906;8.376;2023-08-12T01:33:34;17.40;;;8.87;;
19111;SDS011;9688;51.906;8.376;2023-08-12T01:36:27;15.25;;;8.93;;
19111;SDS011;9688;51.906;8.376;2023-08-12T01:39:16;17.70;;;9.13;;
19111;SDS011;9688;51.906;8.376;2023-08-12T01:42:05;16.37;;;9.07;;
19111;SDS011;9688;51.906;8.376;2023-08-12T01:44:51;16.30;;;10.30;;
19111;SDS011;9688;51.906;8.376;2023-08-12T01:47:37;18.57;;;10.33;;
19111;SDS011;9688;51.906;8.376;2023-08-12T01:50:23;16.17;;;10.90;;
19111;SDS011;9688;51.906;8.376;2023-08-12T01:53:10;21.63;;;11.40;;
19111;SDS011;9688;51.906;8.376;2023-08-12T01:55:55;24.17;;;13.43;;
19111;SDS011;9688;51.906;8.376;2023-08-12T01:58:42;33.13;;;16.97;;
19111;SDS011;9688;51.906;8.376;2023-08-12T02:01:28;29.97;;;16.03;;
19111;SDS011;9688;51.906;8.376;2023-08-12T02:04:14;33.70;;;17.77;;
19111;SDS011;9688;51.906;8.376;2023-08-12T02:06:59;34.47;;;17.20;;
19111;SDS011;9688;51.906;8.376;2023-08-12T02:09:46;34.63;;;19.60;;
19111;SDS011;9688;51.906;8.376;2023-08-12T02:12:31;32.87;;;18.67;;
19111;SDS011;9688;51.906;8.376;2023-08-12T02:15:18;42.10;;;20.53;;
19111;SDS011;9688;51.906;8.376;2023-08-12T02:18:04;38.13;;;21.23;;
19111;SDS011;9688;51.906;8.376;2023-08-12T02:20:50;37.20;;;22.67;;
19111;SDS011;9688;51.906;8.376;2023-08-12T02:23:36;40.30;;;21.27;;
19111;SDS011;9688;51.906;8.376;2023-08-12T02:26:22;36.63;;;20.57;;
19111;SDS011;9688;51.906;8.376;2023-08-12T02:29:08;37.77;;;21.27;;
19111;SDS011;9688;51.906;8.376;2023-08-12T02:31:55;40.13;;;21.87;;
19111;SDS011;9688;51.906;8.376;2023-08-12T02:34:41;44.60;;;22.67;;
19111;SDS011;9688;51.906;8.376;2023-08-12T02:37:27;45.10;;;24.33;;
19111;SDS011;9688;51.906;8.376;2023-08-12T02:40:13;45.93;;;24.50;;
19111;SDS011;9688;51.906;8.376;2023-08-12T02:43:00;39.53;;;22.43;;
19111;SDS011;9688;51.906;8.376;2023-08-12T02:45:45;35.70;;;21.67;;
19111;SDS011;9688;51.906;8.376;2023-08-12T02:48:33;39.47;;;22.33;;
19111;SDS011;9688;51.906;8.376;2023-08-12T02:51:21;45.37;;;22.77;;
19111;SDS011;9688;51.906;8.376;2023-08-12T02:54:07;45.33;;;25.17;;
19111;SDS011;9688;51.906;8.376;2023-08-12T02:56:53;47.37;;;24.13;;
19111;SDS011;9688;51.906;8.376;2023-08-12T02:59:38;47.07;;;25.40;;
19111;SDS011;9688;51.906;8.376;2023-08-12T03:02:24;51.77;;;25.50;;
19111;SDS011;9688;51.906;8.376;2023-08-12T03:05:12;39.23;;;24.53;;
19111;SDS011;9688;51.906;8.376;2023-08-12T03:07:57;51.40;;;29.60;;
19111;SDS011;9688;51.906;8.376;2023-08-12T03:10:45;54.23;;;28.60;;
19111;SDS011;9688;51.906;8.376;2023-08-12T03:13:31;59.60;;;29.03;;
19111;SDS011;9688;51.906;8.376;2023-08-12T03:16:18;58.90;;;31.17;;
19111;SDS011;9688;51.906;8.376;2023-08-12T03:19:03;61.83;;;31.33;;
19111;SDS011;9688;51.906;8.376;2023-08-12T03:21:51;57.43;;;30.13;;
19111;SDS011;9688;51.906;8.376;2023-08-12T03:24:36;59.13;;;31.27;;
19111;SDS011;9688;51.906;8.376;2023-08-12T03:27:22;61.90;;;31.60;;
19111;SDS011;9688;51.906;8.376;2023-08-12T03:30:08;53.50;;;30.60;;
19111;SDS011;9688;51.906;8.376;2023-08-12T03:32:54;62.73;;;33.17;;
19111;SDS011;9688;51.906;8.376;2023-08-12T03:35:44;75.37;;;35.23;;
19111;SDS011;9688;51.906;8.376;2023-08-12T03:38:31;62.53;;;32.30;;
19111;SDS011;9688;51.906;8.376;2023-08-12T03:41:17;53.47;;;29.20;;
19111;SDS011;9688;51.906;8.376;2023-08-12T03:44:03;53.73;;;31.90;;
19111;SDS011;9688;51.906;8.376;2023-08-12T03:46:49;68.43;;;35.37;;
19111;SDS011;9688;51.906;8.376;2023-08-12T03:49:35;64.13;;;34.30;;
19111;SDS011;9688;51.906;8.376;2023-08-12T03:52:21;67.53;;;32.73;;
19111;SDS011;9688;51.906;8.376;2023-08-12T03:55:09;63.57;;;34.30;;
19111;SDS011;9688;51.906;8.376;2023-08-12T03:57:55;63.63;;;34.33;;
19111;SDS011;9688;51.906;8.376;2023-08-12T04:00:42;65.53;;;34.13;;
19111;SDS011;9688;51.906;8.376;2023-08-12T04:03:28;73.40;;;34.70;;
19111;SDS011;9688;51.906;8.376;2023-08-12T04:06:14;81.43;;;35.03;;
19111;SDS011;9688;51.906;8.376;2023-08-12T04:09:00;74.97;;;36.63;;
19111;SDS011;9688;51.906;8.376;2023-08-12T04:11:47;76.67;;;38.07;;
19111;SDS011;9688;51.906;8.376;2023-08-12T04:14:33;81.57;;;38.03;;
19111;SDS011;9688;51.906;8.376;2023-08-12T04:17:19;66.30;;;34.50;;
19111;SDS011;9688;51.906;8.376;2023-08-12T04:20:05;62.43;;;34.40;;
19111;SDS011;9688;51.906;8.376;2023-08-12T04:22:52;68.17;;;34.50;;
19111;SDS011;9688;51.906;8.376;2023-08-12T04:25:38;75.53;;;35.97;;
19111;SDS011;9688;51.906;8.376;2023-08-12T04:28:25;58.67;;;32.43;;
19111;SDS011;9688;51.906;8.376;2023-08-12T04:31:10;63.97;;;32.30;;
19111;SDS011;9688;51.906;8.376;2023-08-12T04:33:56;62.13;;;32.97;;
19111;SDS011;9688;51.906;8.376;2023-08-12T04:36:42;64.00;;;32.73;;
19111;SDS011;9688;51.906;8.376;2023-08-12T04:39:28;68.43;;;34.87;;
19111;SDS011;9688;51.906;8.376;2023-08-12T04:42:16;90.07;;;37.17;;
19111;SDS011;9688;51.906;8.376;2023-08-12T04:45:03;60.00;;;31.23;;
19111;SDS011;9688;51.906;8.376;2023-08-12T04:47:50;64.53;;;32.27;;
19111;SDS011;9688;51.906;8.376;2023-08-12T04:50:36;56.07;;;30.33;;
19111;SDS011;9688;51.906;8.376;2023-08-12T04:53:22;71.13;;;34.53;;
19111;SDS011;9688;51.906;8.376;2023-08-12T04:56:09;75.53;;;35.83;;
19111;SDS011;9688;51.906;8.376;2023-08-12T04:58:54;49.47;;;31.07;;
19111;SDS011;9688;51.906;8.376;2023-08-12T05:01:41;69.97;;;34.83;;
19111;SDS011;9688;51.906;8.376;2023-08-12T05:04:28;79.17;;;37.37;;
19111;SDS011;9688;51.906;8.376;2023-08-12T05:07:14;63.67;;;31.97;;
19111;SDS011;9688;51.906;8.376;2023-08-12T05:10:00;71.50;;;35.43;;
19111;SDS011;9688;51.906;8.376;2023-08-12T05:12:46;60.33;;;32.97;;
19111;SDS011;9688;51.906;8.376;2023-08-12T05:15:33;72.20;;;34.53;;
19111;SDS011;9688;51.906;8.376;2023-08-12T05:18:22;63.17;;;33.47;;
19111;SDS011;9688;51.906;8.376;2023-08-12T05:21:08;56.73;;;29.47;;
19111;SDS011;9688;51.906;8.376;2023-08-12T05:23:54;63.57;;;32.67;;
19111;SDS011;9688;51.906;8.376;2023-08-12T05:26:40;52.97;;;29.73;;
19111;SDS011;9688;51.906;8.376;2023-08-12T05:29:26;61.03;;;32.10;;
19111;SDS011;9688;51.906;8.376;2023-08-12T05:32:11;50.57;;;28.37;;
19111;SDS011;9688;51.906;8.376;2023-08-12T05:34:58;62.23;;;31.63;;
19111;SDS011;9688;51.906;8.376;2023-08-12T05:37:44;48.73;;;27.33;;
19111;SDS011;9688;51.906;8.376;2023-08-12T05:40:30;49.90;;;30.07;;
19111;SDS011;9688;51.906;8.376;2023-08-12T05:43:16;47.00;;;27.10;;
19111;SDS011;9688;51.906;8.376;2023-08-12T05:46:01;47.23;;;27.43;;
19111;SDS011;9688;51.906;8.376;2023-08-12T05:48:47;57.77;;;30.10;;
19111;SDS011;9688;51.906;8.376;2023-08-12T05:51:37;46.53;;;26.90;;
19111;SDS011;9688;51.906;8.376;2023-08-12T05:54:23;51.30;;;28.20;;
19111;SDS011;9688;51.906;8.376;2023-08-12T05:57:08;41.43;;;26.80;;
19111;SDS011;9688;51.906;8.376;2023-08-12T05:59:57;46.47;;;26.67;;
19111;SDS011;9688;51.906;8.376;2023-08-12T06:02:42;47.43;;;28.90;;
19111;SDS011;9688;51.906;8.376;2023-08-12T06:05:28;49.50;;;26.83;;
19111;SDS011;9688;51.906;8.376;2023-08-12T06:08:16;47.70;;;28.05;;
19111;SDS011;9688;51.906;8.376;2023-08-12T06:11:01;41.70;;;25.77;;
19111;SDS011;9688;51.906;8.376;2023-08-12T06:13:46;42.07;;;26.03;;
19111;SDS011;9688;51.906;8.376;2023-08-12T06:16:33;44.20;;;26.17;;
19111;SDS011;9688;51.906;8.376;2023-08-12T06:19:19;36.73;;;23.77;;
19111;SDS011;9688;51.906;8.376;2023-08-12T06:22:05;37.40;;;23.53;;
19111;SDS011;9688;51.906;8.376;2023-08-12T06:24:53;37.77;;;24.33;;
19111;SDS011;9688;51.906;8.376;2023-08-12T06:27:39;40.57;;;24.37;;
19111;SDS011;9688;51.906;8.376;2023-08-12T06:30:24;40.13;;;25.67;;
19111;SDS011;9688;51.906;8.376;2023-08-12T06:33:11;40.77;;;24.97;;
19111;SDS011;9688;51.906;8.376;2023-08-12T06:35:56;35.57;;;22.70;;
19111;SDS011;9688;51.906;8.376;2023-08-12T06:38:42;37.50;;;23.00;;
19111;SDS011;9688;51.906;8.376;2023-08-12T06:41:29;40.60;;;23.52;;
19111;SDS011;9688;51.906;8.376;2023-08-12T06:44:15;34.17;;;22.58;;
19111;SDS011;9688;51.906;8.376;2023-08-12T06:47:00;31.40;;;21.05;;
19111;SDS011;9688;51.906;8.376;2023-08-12T06:49:46;32.85;;;21.67;;
19111;SDS011;9688;51.906;8.376;2023-08-12T06:52:32;36.92;;;20.85;;
19111;SDS011;9688;51.906;8.376;2023-08-12T06:55:18;30.95;;;18.92;;
19111;SDS011;9688;51.906;8.376;2023-08-12T06:58:05;29.50;;;19.15;;
19111;SDS011;9688;51.906;8.376;2023-08-12T07:00:50;26.90;;;19.73;;
19111;SDS011;9688;51.906;8.376;2023-08-12T07:03:37;26.20;;;18.38;;
19111;SDS011;9688;51.906;8.376;2023-08-12T07:06:23;28.98;;;19.38;;
19111;SDS011;9688;51.906;8.376;2023-08-12T07:09:09;27.65;;;17.75;;
19111;SDS011;9688;51.906;8.376;2023-08-12T07:11:55;27.10;;;18.02;;
19111;SDS011;9688;51.906;8.376;2023-08-12T07:14:42;20.98;;;16.25;;
19111;SDS011;9688;51.906;8.376;2023-08-12T07:17:28;22.13;;;15.23;;
19111;SDS011;9688;51.906;8.376;2023-08-12T07:20:14;19.48;;;14.10;;
19111;SDS011;9688;51.906;8.376;2023-08-12T07:22:59;21.80;;;14.63;;
19111;SDS011;9688;51.906;8.376;2023-08-12T07:25:45;22.80;;;14.32;;
19111;SDS011;9688;51.906;8.376;2023-08-12T07:28:31;19.48;;;14.20;;
19111;SDS011;9688;51.906;8.376;2023-08-12T07:31:19;16.80;;;13.15;;
19111;SDS011;9688;51.906;8.376;2023-08-12T07:34:04;17.85;;;13.40;;
19111;SDS011;9688;51.906;8.376;2023-08-12T07:36:50;20.73;;;13.63;;
19111;SDS011;9688;51.906;8.376;2023-08-12T07:39:37;18.27;;;13.75;;
19111;SDS011;9688;51.906;8.376;2023-08-12T07:42:23;19.60;;;13.73;;
19111;SDS011;9688;51.906;8.376;2023-08-12T07:45:09;17.75;;;13.80;;
19111;SDS011;9688;51.906;8.376;2023-08-12T07:47:56;19.95;;;13.82;;
19111;SDS011;9688;51.906;8.376;2023-08-12T07:50:42;20.45;;;13.98;;
19111;SDS011;9688;51.906;8.376;2023-08-12T07:53:29;20.13;;;13.70;;
19111;SDS011;9688;51.906;8.376;2023-08-12T07:56:14;18.45;;;13.65;;
19111;SDS011;9688;51.906;8.376;2023-08-12T07:59:00;19.00;;;13.82;;
19111;SDS011;9688;51.906;8.376;2023-08-12T08:01:47;18.13;;;13.70;;
19111;SDS011;9688;51.906;8.376;2023-08-12T08:04:37;19.05;;;13.13;;
19111;SDS011;9688;51.906;8.376;2023-08-12T08:07:23;18.90;;;13.77;;
19111;SDS011;9688;51.906;8.376;2023-08-12T08:10:09;19.75;;;14.20;;
19111;SDS011;9688;51.906;8.376;2023-08-12T08:12:55;20.77;;;13.18;;
19111;SDS011;9688;51.906;8.376;2023-08-12T08:15:41;17.10;;;13.55;;
19111;SDS011;9688;51.906;8.376;2023-08-12T08:18:27;20.25;;;14.63;;
19111;SDS011;9688;51.906;8.376;2023-08-12T08:21:14;19.92;;;15.40;;
19111;SDS011;9688;51.906;8.376;2023-08-12T08:24:01;21.95;;;15.18;;
19111;SDS011;9688;51.906;8.376;2023-08-12T08:26:47;22.15;;;15.77;;
19111;SDS011;9688;51.906;8.376;2023-08-12T08:29:33;20.48;;;14.60;;
19111;SDS011;9688;51.906;8.376;2023-08-12T08:32:19;22.02;;;15.55;;
19111;SDS011;9688;51.906;8.376;2023-08-12T08:35:06;21.10;;;15.68;;
19111;SDS011;9688;51.906;8.376;2023-08-12T08:37:53;23.00;;;15.35;;
19111;SDS011;9688;51.906;8.376;2023-08-12T08:40:39;23.92;;;17.52;;
19111;SDS011;9688;51.906;8.376;2023-08-12T08:43:26;24.63;;;17.90;;
19111;SDS011;9688;51.906;8.376;2023-08-12T08:46:13;23.67;;;15.57;;
19111;SDS011;9688;51.906;8.376;2023-08-12T08:49:00;24.95;;;17.25;;
19111;SDS011;9688;51.906;8.376;2023-08-12T08:51:47;27.83;;;18.25;;
19111;SDS011;9688;51.906;8.376;2023-08-12T08:54:35;29.00;;;17.92;;
19111;SDS011;9688;51.906;8.376;2023-08-12T08:57:22;26.25;;;17.23;;
19111;SDS011;9688;51.906;8.376;2023-08-12T09:00:08;22.83;;;17.40;;
19111;SDS011;9688;51.906;8.376;2023-08-12T09:02:55;25.35;;;16.63;;
19111;SDS011;9688;51.906;8.376;2023-08-12T09:05:43;19.10;;;14.30;;
19111;SDS011;9688;51.906;8.376;2023-08-12T09:08:30;21.55;;;15.63;;
19111;SDS011;9688;51.906;8.376;2023-08-12T09:11:20;19.77;;;12.65;;
19111;SDS011;9688;51.906;8.376;2023-08-12T09:14:06;16.50;;;12.68;;
19111;SDS011;9688;51.906;8.376;2023-08-12T09:16:52;17.45;;;13.57;;
19111;SDS011;9688;51.906;8.376;2023-08-12T09:19:38;16.83;;;13.63;;
19111;SDS011;9688;51.906;8.376;2023-08-12T09:22:23;17.17;;;13.23;;
19111;SDS011;9688;51.906;8.376;2023-08-12T09:25:11;16.85;;;12.02;;
19111;SDS011;9688;51.906;8.376;2023-08-12T09:27:59;14.45;;;10.00;;
19111;SDS011;9688;51.906;8.376;2023-08-12T09:30:50;11.48;;;9.25;;
19111;SDS011;9688;51.906;8.376;2023-08-12T09:33:38;11.88;;;8.43;;
19111;SDS011;9688;51.906;8.376;2023-08-12T09:36:27;9.15;;;6.78;;
19111;SDS011;9688;51.906;8.376;2023-08-12T09:39:14;6.63;;;5.93;;
19111;SDS011;9688;51.906;8.376;2023-08-12T09:42:00;6.88;;;5.80;;
19111;SDS011;9688;51.906;8.376;2023-08-12T09:44:49;7.38;;;5.30;;
19111;SDS011;9688;51.906;8.376;2023-08-12T09:47:35;6.75;;;4.82;;
19111;SDS011;9688;51.906;8.376;2023-08-12T09:50:26;4.28;;;3.63;;
19111;SDS011;9688;51.906;8.376;2023-08-12T09:53:14;4.15;;;3.65;;
19111;SDS011;9688;51.906;8.376;2023-08-12T09:56:02;4.03;;;3.50;;
19111;SDS011;9688;51.906;8.376;2023-08-12T09:58:51;3.67;;;3.28;;
19111;SDS011;9688;51.906;8.376;2023-08-12T10:01:40;3.92;;;3.30;;
19111;SDS011;9688;51.906;8.376;2023-08-12T10:04:34;3.13;;;2.92;;
19111;SDS011;9688;51.906;8.376;2023-08-12T10:07:24;3.22;;;2.92;;
19111;SDS011;9688;51.906;8.376;2023-08-12T10:10:11;3.50;;;3.10;;
19111;SDS011;9688;51.906;8.376;2023-08-12T10:12:57;3.20;;;2.85;;
19111;SDS011;9688;51.906;8.376;2023-08-12T10:15:45;4.53;;;2.65;;
19111;SDS011;9688;51.906;8.376;2023-08-12T10:18:32;3.13;;;2.22;;
19111;SDS011;9688;51.906;8.376;2023-08-12T10:21:20;2.80;;;2.50;;
19111;SDS011;9688;51.906;8.376;2023-08-12T10:24:08;2.58;;;2.38;;
19111;SDS011;9688;51.906;8.376;2023-08-12T10:26:57;1.83;;;1.80;;
19111;SDS011;9688;51.906;8.376;2023-08-12T10:29:47;4.03;;;2.30;;
19111;SDS011;9688;51.906;8.376;2023-08-12T10:32:33;2.75;;;2.13;;
19111;SDS011;9688;51.906;8.376;2023-08-12T10:35:21;2.97;;;2.00;;
19111;SDS011;9688;51.906;8.376;2023-08-12T10:38:08;2.20;;;2.10;;
19111;SDS011;9688;51.906;8.376;2023-08-12T10:44:01;1.90;;;1.90;;
19111;SDS011;9688;51.906;8.376;2023-08-12T10:46:51;2.83;;;2.10;;
19111;SDS011;9688;51.906;8.376;2023-08-12T10:49:38;1.75;;;1.63;;
19111;SDS011;9688;51.906;8.376;2023-08-12T10:52:31;2.42;;;1.90;;
19111;SDS011;9688;51.906;8.376;2023-08-12T10:55:19;2.25;;;1.90;;
19111;SDS011;9688;51.906;8.376;2023-08-12T10:58:25;1.80;;;1.50;;
19111;SDS011;9688;51.906;8.376;2023-08-12T11:01:17;1.30;;;1.30;;
19111;SDS011;9688;51.906;8.376;2023-08-12T11:04:17;2.30;;;1.58;;
19111;SDS011;9688;51.906;8.376;2023-08-12T11:07:13;1.50;;;1.40;;
19111;SDS011;9688;51.906;8.376;2023-08-12T11:10:09;2.65;;;2.47;;
19111;SDS011;9688;51.906;8.376;2023-08-12T11:12:57;1.80;;;1.65;;
19111;SDS011;9688;51.906;8.376;2023-08-12T11:15:47;1.58;;;1.10;;
19111;SDS011;9688;51.906;8.376;2023-08-12T11:18:36;2.55;;;1.25;;
19111;SDS011;9688;51.906;8.376;2023-08-12T11:21:27;1.10;;;1.10;;
19111;SDS011;9688;51.906;8.376;2023-08-12T11:24:14;1.10;;;1.10;;
19111;SDS011;9688;51.906;8.376;2023-08-12T11:27:01;1.00;;;0.88;;
19111;SDS011;9688;51.906;8.376;2023-08-12T11:29:51;1.15;;;1.15;;
19111;SDS011;9688;51.906;8.376;2023-08-12T11:32:38;1.73;;;1.35;;
19111;SDS011;9688;51.906;8.376;2023-08-12T11:35:25;0.98;;;0.98;;
19111;SDS011;9688;51.906;8.376;2023-08-12T11:38:13;1.23;;;1.13;;
19111;SDS011;9688;51.906;8.376;2023-08-12T11:41:00;1.65;;;1.40;;
19111;SDS011;9688;51.906;8.376;2023-08-12T11:43:47;1.15;;;1.15;;
19111;SDS011;9688;51.906;8.376;2023-08-12T11:46:33;1.25;;;1.00;;
19111;SDS011;9688;51.906;8.376;2023-08-12T11:49:22;1.23;;;1.05;;
19111;SDS011;9688;51.906;8.376;2023-08-12T11:52:12;1.80;;;1.50;;
19111;SDS011;9688;51.906;8.376;2023-08-12T11:55:03;1.75;;;1.48;;
19111;SDS011;9688;51.906;8.376;2023-08-12T11:57:50;1.17;;;1.17;;
19111;SDS011;9688;51.906;8.376;2023-08-12T12:00:37;1.60;;;1.50;;
19111;SDS011;9688;51.906;8.376;2023-08-12T12:03:23;1.35;;;1.30;;
19111;SDS011;9688;51.906;8.376;2023-08-12T12:06:16;1.38;;;1.38;;
19111;SDS011;9688;51.906;8.376;2023-08-12T12:09:05;1.45;;;1.00;;
19111;SDS011;9688;51.906;8.376;2023-08-12T12:11:57;1.30;;;1.30;;
19111;SDS011;9688;51.906;8.376;2023-08-12T12:14:46;1.17;;;1.17;;
19111;SDS011;9688;51.906;8.376;2023-08-12T12:17:32;1.20;;;1.20;;
19111;SDS011;9688;51.906;8.376;2023-08-12T12:20:18;1.00;;;1.00;;
19111;SDS011;9688;51.906;8.376;2023-08-12T12:23:07;1.45;;;1.30;;
19111;SDS011;9688;51.906;8.376;2023-08-12T12:25:58;1.10;;;1.10;;
19111;SDS011;9688;51.906;8.376;2023-08-12T12:28:45;1.10;;;1.10;;
19111;SDS011;9688;51.906;8.376;2023-08-12T12:31:31;1.00;;;1.00;;
19111;SDS011;9688;51.906;8.376;2023-08-12T12:34:18;1.23;;;1.08;;
19111;SDS011;9688;51.906;8.376;2023-08-12T12:37:04;1.00;;;1.00;;
19111;SDS011;9688;51.906;8.376;2023-08-12T12:39:51;3.22;;;3.03;;
19111;SDS011;9688;51.906;8.376;2023-08-12T12:42:37;1.52;;;1.42;;
19111;SDS011;9688;51.906;8.376;2023-08-12T12:45:23;1.40;;;1.30;;
19111;SDS011;9688;51.906;8.376;2023-08-12T12:48:09;1.05;;;1.02;;
19111;SDS011;9688;51.906;8.376;2023-08-12T12:50:55;1.67;;;1.30;;
19111;SDS011;9688;51.906;8.376;2023-08-12T12:53:41;1.55;;;1.20;;
19111;SDS011;9688;51.906;8.376;2023-08-12T12:56:32;1.70;;;1.60;;
19111;SDS011;9688;51.906;8.376;2023-08-12T12:59:18;2.38;;;1.17;;
19111;SDS011;9688;51.906;8.376;2023-08-12T13:02:04;1.45;;;1.35;;
19111;SDS011;9688;51.906;8.376;2023-08-12T13:04:50;1.52;;;1.45;;
19111;SDS011;9688;51.906;8.376;2023-08-12T13:07:36;1.38;;;1.30;;
19111;SDS011;9688;51.906;8.376;2023-08-12T13:10:22;1.48;;;1.40;;
19111;SDS011;9688;51.906;8.376;2023-08-12T13:13:09;1.63;;;1.30;;
19111;SDS011;9688;51.906;8.376;2023-08-12T13:15:55;1.48;;;1.38;;
19111;SDS011;9688;51.906;8.376;2023-08-12T13:18:44;1.60;;;1.50;;
19111;SDS011;9688;51.906;8.376;2023-08-12T13:21:30;1.17;;;1.17;;
19111;SDS011;9688;51.906;8.376;2023-08-12T13:24:16;1.95;;;1.00;;
19111;SDS011;9688;51.906;8.376;2023-08-12T13:27:02;1.42;;;1.35;;
19111;SDS011;9688;51.906;8.376;2023-08-12T13:29:49;1.50;;;1.40;;
19111;SDS011;9688;51.906;8.376;2023-08-12T13:32:35;1.40;;;1.40;;
19111;SDS011;9688;51.906;8.376;2023-08-12T13:35:21;1.73;;;1.65;;
19111;SDS011;9688;51.906;8.376;2023-08-12T13:38:08;1.38;;;1.38;;
19111;SDS011;9688;51.906;8.376;2023-08-12T13:40:54;1.88;;;1.77;;
19111;SDS011;9688;51.906;8.376;2023-08-12T13:43:40;1.75;;;1.70;;
19111;SDS011;9688;51.906;8.376;2023-08-12T13:46:27;1.33;;;1.33;;
19111;SDS011;9688;51.906;8.376;2023-08-12T13:49:13;1.65;;;1.30;;
19111;SDS011;9688;51.906;8.376;2023-08-12T13:52:01;1.70;;;1.63;;
19111;SDS011;9688;51.906;8.376;2023-08-12T13:54:50;2.05;;;1.50;;
19111;SDS011;9688;51.906;8.376;2023-08-12T13:57:36;2.03;;;1.80;;
19111;SDS011;9688;51.906;8.376;2023-08-12T14:00:22;2.25;;;2.15;;
19111;SDS011;9688;51.906;8.376;2023-08-12T14:03:09;2.90;;;2.70;;
19111;SDS011;9688;51.906;8.376;2023-08-12T14:05:55;2.10;;;2.00;;
19111;SDS011;9688;51.906;8.376;2023-08-12T14:08:41;2.20;;;2.10;;
19111;SDS011;9688;51.906;8.376;2023-08-12T14:11:26;1.85;;;1.75;;
19111;SDS011;9688;51.906;8.376;2023-08-12T14:14:13;2.17;;;2.08;;
19111;SDS011;9688;51.906;8.376;2023-08-12T14:16:59;2.00;;;1.90;;
19111;SDS011;9688;51.906;8.376;2023-08-12T14:19:49;4.20;;;2.30;;
19111;SDS011;9688;51.906;8.376;2023-08-12T14:22:36;5.97;;;1.90;;
19111;SDS011;9688;51.906;8.376;2023-08-12T14:25:24;2.63;;;2.20;;
19111;SDS011;9688;51.906;8.376;2023-08-12T14:28:10;2.88;;;2.30;;
19111;SDS011;9688;51.906;8.376;2023-08-12T14:30:56;4.22;;;2.30;;
19111;SDS011;9688;51.906;8.376;2023-08-12T14:33:42;2.00;;;1.90;;
19111;SDS011;9688;51.906;8.376;2023-08-12T14:36:29;3.80;;;3.35;;
19111;SDS011;9688;51.906;8.376;2023-08-12T14:39:16;5.75;;;4.00;;
19111;SDS011;9688;51.906;8.376;2023-08-12T14:42:01;8.10;;;4.10;;
19111;SDS011;9688;51.906;8.376;2023-08-12T14:44:48;3.03;;;2.35;;
19111;SDS011;9688;51.906;8.376;2023-08-12T14:47:59;3.47;;;3.20;;
19111;SDS011;9688;51.906;8.376;2023-08-12T14:51:09;2.28;;;2.17;;
19111;SDS011;9688;51.906;8.376;2023-08-12T14:53:57;3.65;;;2.80;;
19111;SDS011;9688;51.906;8.376;2023-08-12T14:56:43;2.40;;;2.20;;
19111;SDS011;9688;51.906;8.376;2023-08-12T14:59:28;2.40;;;2.30;;
19111;SDS011;9688;51.906;8.376;2023-08-12T15:02:13;2.20;;;2.10;;
19111;SDS011;9688;51.906;8.376;2023-08-12T15:04:59;2.47;;;2.30;;
19111;SDS011;9688;51.906;8.376;2023-08-12T15:07:45;2.38;;;1.95;;
19111;SDS011;9688;51.906;8.376;2023-08-12T15:10:32;2.15;;;2.05;;
19111;SDS011;9688;51.906;8.376;2023-08-12T15:13:18;3.27;;;2.17;;
19111;SDS011;9688;51.906;8.376;2023-08-12T15:16:04;2.37;;;2.17;;
19111;SDS011;9688;51.906;8.376;2023-08-12T15:18:50;7.68;;;3.58;;
19111;SDS011;9688;51.906;8.376;2023-08-12T15:21:35;1.83;;;1.70;;
19111;SDS011;9688;51.906;8.376;2023-08-12T15:24:20;2.30;;;2.10;;
19111;SDS011;9688;51.906;8.376;2023-08-12T15:27:08;1.87;;;1.70;;
19111;SDS011;9688;51.906;8.376;2023-08-12T15:29:53;2.03;;;1.92;;
19111;SDS011;9688;51.906;8.376;2023-08-12T15:32:38;1.90;;;1.80;;
19111;SDS011;9688;51.906;8.376;2023-08-12T15:35:26;2.55;;;2.03;;
19111;SDS011;9688;51.906;8.376;2023-08-12T15:38:12;1.93;;;1.83;;
19111;SDS011;9688;51.906;8.376;2023-08-12T15:40:57;1.98;;;1.88;;
19111;SDS011;9688;51.906;8.376;2023-08-12T15:43:44;2.47;;;2.30;;
19111;SDS011;9688;51.906;8.376;2023-08-12T15:46:30;2.60;;;2.20;;
19111;SDS011;9688;51.906;8.376;2023-08-12T15:49:15;2.40;;;2.30;;
19111;SDS011;9688;51.906;8.376;2023-08-12T15:52:01;2.83;;;2.50;;
19111;SDS011;9688;51.906;8.376;2023-08-12T15:54:46;8.20;;;3.67;;
19111;SDS011;9688;51.906;8.376;2023-08-12T15:57:32;3.03;;;2.83;;
19111;SDS011;9688;51.906;8.376;2023-08-12T16:00:19;5.73;;;3.10;;
19111;SDS011;9688;51.906;8.376;2023-08-12T16:03:04;5.47;;;3.63;;
19111;SDS011;9688;51.906;8.376;2023-08-12T16:05:50;3.67;;;3.20;;
19111;SDS011;9688;51.906;8.376;2023-08-12T16:08:35;3.00;;;2.70;;
19111;SDS011;9688;51.906;8.376;2023-08-12T16:11:20;1.87;;;1.77;;
19111;SDS011;9688;51.906;8.376;2023-08-12T16:14:06;1.80;;;1.50;;
19111;SDS011;9688;51.906;8.376;2023-08-12T16:16:53;1.40;;;1.30;;
19111;SDS011;9688;51.906;8.376;2023-08-12T16:19:39;1.50;;;1.40;;
19111;SDS011;9688;51.906;8.376;2023-08-12T16:22:28;1.80;;;1.70;;
19111;SDS011;9688;51.906;8.376;2023-08-12T16:25:14;3.47;;;1.33;;
19111;SDS011;9688;51.906;8.376;2023-08-12T16:28:00;1.50;;;1.40;;
19111;SDS011;9688;51.906;8.376;2023-08-12T16:30:45;1.10;;;1.10;;
19111;SDS011;9688;51.906;8.376;2023-08-12T16:33:32;3.03;;;1.40;;
19111;SDS011;9688;51.906;8.376;2023-08-12T16:36:18;2.33;;;1.43;;
19111;SDS011;9688;51.906;8.376;2023-08-12T16:39:04;1.70;;;1.60;;
19111;SDS011;9688;51.906;8.376;2023-08-12T16:41:50;1.60;;;1.50;;
19111;SDS011;9688;51.906;8.376;2023-08-12T16:44:35;1.90;;;1.80;;
19111;SDS011;9688;51.906;8.376;2023-08-12T16:47:21;2.50;;;2.07;;
19111;SDS011;9688;51.906;8.376;2023-08-12T16:50:09;1.70;;;1.53;;